sensor_id;sensor_type;location;lat;lon;timestamp;P1;durP1;ratioP1;P2;durP2;ratioP2
71038;SDS011;58692;43.212;27.908;2023-03-01T00:01:31;8.18;;;3.10;;
71038;SDS011;58692;43.212;27.908;2023-03-01T00:03:57;7.22;;;3.22;;
71038;SDS011;58692;43.212;27.908;2023-03-01T00:06:23;8.77;;;3.20;;
71038;SDS011;58692;43.212;27.908;2023-03-01T00:08:49;6.82;;;2.80;;
71038;SDS011;58692;43.212;27.908;2023-03-01T00:11:16;8.75;;;3.28;;
71038;SDS011;58692;43.212;27.908;2023-03-01T00:13:46;8.80;;;3.20;;
71038;SDS011;58692;43.212;27.908;2023-03-01T00:16:15;10.68;;;3.42;;
71038;SDS011;58692;43.212;27.908;2023-03-01T00:18:42;7.60;;;3.30;;
71038;SDS011;58692;43.212;27.908;2023-03-01T00:21:08;9.52;;;4.13;;
71038;SDS011;58692;43.212;27.908;2023-03-01T00:23:34;8.57;;;3.63;;
71038;SDS011;58692;43.212;27.908;2023-03-01T00:26:00;7.47;;;3.00;;
71038;SDS011;58692;43.212;27.908;2023-03-01T00:28:26;8.07;;;3.75;;
71038;SDS011;58692;43.212;27.908;2023-03-01T00:30:51;8.77;;;3.80;;
71038;SDS011;58692;43.212;27.908;2023-03-01T00:33:17;9.37;;;3.90;;
71038;SDS011;58692;43.212;27.908;2023-03-01T00:35:43;9.02;;;4.00;;
71038;SDS011;58692;43.212;27.908;2023-03-01T00:38:09;10.02;;;4.30;;
71038;SDS011;58692;43.212;27.908;2023-03-01T00:40:35;10.52;;;3.65;;
71038;SDS011;58692;43.212;27.908;2023-03-01T00:43:01;10.17;;;3.93;;
71038;SDS011;58692;43.212;27.908;2023-03-01T00:45:27;10.25;;;3.92;;
71038;SDS011;58692;43.212;27.908;2023-03-01T00:47:55;10.18;;;4.80;;
71038;SDS011;58692;43.212;27.908;2023-03-01T00:50:21;9.70;;;4.10;;
71038;SDS011;58692;43.212;27.908;2023-03-01T00:52:50;8.25;;;3.05;;
71038;SDS011;58692;43.212;27.908;2023-03-01T00:55:17;9.70;;;3.25;;
71038;SDS011;58692;43.212;27.908;2023-03-01T00:57:43;8.40;;;3.33;;
71038;SDS011;58692;43.212;27.908;2023-03-01T01:00:08;6.93;;;2.80;;
71038;SDS011;58692;43.212;27.908;2023-03-01T01:02:36;10.00;;;3.60;;
71038;SDS011;58692;43.212;27.908;2023-03-01T01:05:02;8.90;;;3.22;;
71038;SDS011;58692;43.212;27.908;2023-03-01T01:07:29;10.48;;;3.17;;
71038;SDS011;58692;43.212;27.908;2023-03-01T01:09:54;9.60;;;3.50;;
71038;SDS011;58692;43.212;27.908;2023-03-01T01:12:20;8.75;;;2.95;;
71038;SDS011;58692;43.212;27.908;2023-03-01T01:14:45;8.97;;;3.30;;
71038;SDS011;58692;43.212;27.908;2023-03-01T01:17:11;8.52;;;3.35;;
71038;SDS011;58692;43.212;27.908;2023-03-01T01:19:37;8.40;;;3.40;;
71038;SDS011;58692;43.212;27.908;2023-03-01T01:22:02;8.17;;;3.33;;
71038;SDS011;58692;43.212;27.908;2023-03-01T01:24:28;11.07;;;3.70;;
71038;SDS011;58692;43.212;27.908;2023-03-01T01:26:54;9.70;;;3.90;;
71038;SDS011;58692;43.212;27.908;2023-03-01T01:29:19;9.32;;;3.90;;
71038;SDS011;58692;43.212;27.908;2023-03-01T01:31:45;9.37;;;4.30;;
71038;SDS011;58692;43.212;27.908;2023-03-01T01:34:13;10.40;;;4.17;;
71038;SDS011;58692;43.212;27.908;2023-03-01T01:36:41;10.00;;;4.45;;
71038;SDS011;58692;43.212;27.908;2023-03-01T01:39:06;10.70;;;4.22;;
71038;SDS011;58692;43.212;27.908;2023-03-01T01:41:32;11.07;;;4.63;;
71038;SDS011;58692;43.212;27.908;2023-03-01T01:46:43;12.63;;;4.97;;
71038;SDS011;58692;43.212;27.908;2023-03-01T01:51:45;11.73;;;5.05;;
71038;SDS011;58692;43.212;27.908;2023-03-01T01:54:22;13.98;;;6.00;;
71038;SDS011;58692;43.212;27.908;2023-03-01T01:56:53;12.73;;;5.83;;
71038;SDS011;58692;43.212;27.908;2023-03-01T01:59:23;14.93;;;5.53;;
71038;SDS011;58692;43.212;27.908;2023-03-01T02:01:51;12.45;;;5.78;;
71038;SDS011;58692;43.212;27.908;2023-03-01T02:04:17;13.65;;;6.60;;
71038;SDS011;58692;43.212;27.908;2023-03-01T02:09:25;14.90;;;6.22;;
71038;SDS011;58692;43.212;27.908;2023-03-01T02:11:52;11.50;;;5.25;;
71038;SDS011;58692;43.212;27.908;2023-03-01T02:14:18;14.45;;;6.00;;
71038;SDS011;58692;43.212;27.908;2023-03-01T02:16:44;12.43;;;5.57;;
71038;SDS011;58692;43.212;27.908;2023-03-01T02:19:12;13.68;;;6.00;;
71038;SDS011;58692;43.212;27.908;2023-03-01T02:21:57;13.90;;;6.30;;
71038;SDS011;58692;43.212;27.908;2023-03-01T02:27:12;14.05;;;5.82;;
71038;SDS011;58692;43.212;27.908;2023-03-01T02:29:38;13.95;;;6.25;;
71038;SDS011;58692;43.212;27.908;2023-03-01T02:32:03;12.87;;;5.63;;
71038;SDS011;58692;43.212;27.908;2023-03-01T02:34:30;14.18;;;6.57;;
71038;SDS011;58692;43.212;27.908;2023-03-01T02:36:59;13.70;;;6.13;;
71038;SDS011;58692;43.212;27.908;2023-03-01T02:39:32;12.82;;;5.93;;
71038;SDS011;58692;43.212;27.908;2023-03-01T02:42:11;13.07;;;5.43;;
71038;SDS011;58692;43.212;27.908;2023-03-01T02:44:39;14.75;;;5.95;;
71038;SDS011;58692;43.212;27.908;2023-03-01T02:47:05;14.60;;;6.40;;
71038;SDS011;58692;43.212;27.908;2023-03-01T02:49:31;15.53;;;6.67;;
71038;SDS011;58692;43.212;27.908;2023-03-01T02:54:36;15.00;;;6.55;;
71038;SDS011;58692;43.212;27.908;2023-03-01T02:57:09;14.63;;;6.35;;
71038;SDS011;58692;43.212;27.908;2023-03-01T02:59:35;14.35;;;6.40;;
71038;SDS011;58692;43.212;27.908;2023-03-01T03:02:07;14.93;;;6.03;;
71038;SDS011;58692;43.212;27.908;2023-03-01T03:04:45;15.48;;;6.65;;
71038;SDS011;58692;43.212;27.908;2023-03-01T03:07:11;14.43;;;6.60;;
71038;SDS011;58692;43.212;27.908;2023-03-01T03:09:37;16.17;;;7.03;;
71038;SDS011;58692;43.212;27.908;2023-03-01T03:12:02;15.83;;;6.87;;
71038;SDS011;58692;43.212;27.908;2023-03-01T03:14:28;14.97;;;6.47;;
71038;SDS011;58692;43.212;27.908;2023-03-01T03:16:53;16.20;;;7.50;;
71038;SDS011;58692;43.212;27.908;2023-03-01T03:19:19;16.10;;;7.47;;
71038;SDS011;58692;43.212;27.908;2023-03-01T03:21:45;16.10;;;7.53;;
71038;SDS011;58692;43.212;27.908;2023-03-01T03:24:11;14.85;;;6.95;;
71038;SDS011;58692;43.212;27.908;2023-03-01T03:26:36;17.37;;;7.57;;
71038;SDS011;58692;43.212;27.908;2023-03-01T03:29:02;17.97;;;7.93;;
71038;SDS011;58692;43.212;27.908;2023-03-01T03:31:27;19.57;;;8.43;;
71038;SDS011;58692;43.212;27.908;2023-03-01T03:33:53;19.40;;;8.18;;
71038;SDS011;58692;43.212;27.908;2023-03-01T03:36:20;19.07;;;8.33;;
71038;SDS011;58692;43.212;27.908;2023-03-01T03:38:49;21.05;;;9.00;;
71038;SDS011;58692;43.212;27.908;2023-03-01T03:41:15;27.95;;;9.32;;
71038;SDS011;58692;43.212;27.908;2023-03-01T03:43:42;20.10;;;8.23;;
71038;SDS011;58692;43.212;27.908;2023-03-01T03:46:09;20.08;;;8.30;;
71038;SDS011;58692;43.212;27.908;2023-03-01T03:48:51;16.20;;;7.25;;
71038;SDS011;58692;43.212;27.908;2023-03-01T03:51:16;20.63;;;8.43;;
71038;SDS011;58692;43.212;27.908;2023-03-01T03:53:43;19.65;;;9.00;;
71038;SDS011;58692;43.212;27.908;2023-03-01T03:56:10;19.92;;;9.02;;
71038;SDS011;58692;43.212;27.908;2023-03-01T03:58:52;20.38;;;9.38;;
71038;SDS011;58692;43.212;27.908;2023-03-01T04:01:17;19.98;;;9.25;;
71038;SDS011;58692;43.212;27.908;2023-03-01T04:03:58;20.87;;;9.33;;
71038;SDS011;58692;43.212;27.908;2023-03-01T04:06:29;23.00;;;10.32;;
71038;SDS011;58692;43.212;27.908;2023-03-01T04:08:54;19.98;;;8.98;;
71038;SDS011;58692;43.212;27.908;2023-03-01T04:11:25;20.93;;;9.03;;
71038;SDS011;58692;43.212;27.908;2023-03-01T04:13:51;21.38;;;9.75;;
71038;SDS011;58692;43.212;27.908;2023-03-01T04:16:19;21.90;;;9.57;;
71038;SDS011;58692;43.212;27.908;2023-03-01T04:18:44;22.90;;;10.03;;
71038;SDS011;58692;43.212;27.908;2023-03-01T04:21:11;21.05;;;9.48;;
71038;SDS011;58692;43.212;27.908;2023-03-01T04:23:37;19.27;;;8.70;;
71038;SDS011;58692;43.212;27.908;2023-03-01T04:26:03;22.40;;;9.43;;
71038;SDS011;58692;43.212;27.908;2023-03-01T04:28:35;19.17;;;9.40;;
71038;SDS011;58692;43.212;27.908;2023-03-01T04:31:07;21.67;;;9.05;;
71038;SDS011;58692;43.212;27.908;2023-03-01T04:33:39;21.42;;;9.68;;
71038;SDS011;58692;43.212;27.908;2023-03-01T04:36:08;20.50;;;9.52;;
71038;SDS011;58692;43.212;27.908;2023-03-01T04:38:37;20.43;;;9.83;;
71038;SDS011;58692;43.212;27.908;2023-03-01T04:41:04;22.38;;;9.57;;
71038;SDS011;58692;43.212;27.908;2023-03-01T04:43:31;22.95;;;9.85;;
71038;SDS011;58692;43.212;27.908;2023-03-01T04:46:05;22.33;;;10.18;;
71038;SDS011;58692;43.212;27.908;2023-03-01T04:48:34;21.60;;;10.20;;
71038;SDS011;58692;43.212;27.908;2023-03-01T04:51:01;25.85;;;10.45;;
71038;SDS011;58692;43.212;27.908;2023-03-01T04:53:28;22.42;;;10.00;;
71038;SDS011;58692;43.212;27.908;2023-03-01T04:55:54;21.17;;;9.25;;
71038;SDS011;58692;43.212;27.908;2023-03-01T04:58:21;19.92;;;9.30;;
71038;SDS011;58692;43.212;27.908;2023-03-01T05:00:48;19.63;;;9.60;;
71038;SDS011;58692;43.212;27.908;2023-03-01T05:03:14;20.75;;;8.95;;
71038;SDS011;58692;43.212;27.908;2023-03-01T05:05:43;19.83;;;8.98;;
71038;SDS011;58692;43.212;27.908;2023-03-01T05:08:11;21.23;;;8.90;;
71038;SDS011;58692;43.212;27.908;2023-03-01T05:10:42;20.05;;;8.93;;
71038;SDS011;58692;43.212;27.908;2023-03-01T05:13:11;21.00;;;8.73;;
71038;SDS011;58692;43.212;27.908;2023-03-01T05:15:38;19.92;;;9.23;;
71038;SDS011;58692;43.212;27.908;2023-03-01T05:18:04;20.57;;;9.37;;
71038;SDS011;58692;43.212;27.908;2023-03-01T05:20:36;19.55;;;8.93;;
71038;SDS011;58692;43.212;27.908;2023-03-01T05:23:02;22.73;;;9.88;;
71038;SDS011;58692;43.212;27.908;2023-03-01T05:25:33;20.30;;;9.80;;
71038;SDS011;58692;43.212;27.908;2023-03-01T05:28:00;18.08;;;8.18;;
71038;SDS011;58692;43.212;27.908;2023-03-01T05:30:29;18.17;;;8.93;;
71038;SDS011;58692;43.212;27.908;2023-03-01T05:32:57;20.00;;;9.63;;
71038;SDS011;58692;43.212;27.908;2023-03-01T05:35:23;19.92;;;8.80;;
71038;SDS011;58692;43.212;27.908;2023-03-01T05:37:49;20.60;;;8.90;;
71038;SDS011;58692;43.212;27.908;2023-03-01T05:40:19;18.13;;;8.57;;
71038;SDS011;58692;43.212;27.908;2023-03-01T05:42:47;20.27;;;8.73;;
71038;SDS011;58692;43.212;27.908;2023-03-01T05:45:14;16.30;;;8.60;;
71038;SDS011;58692;43.212;27.908;2023-03-01T05:47:42;20.07;;;8.60;;
71038;SDS011;58692;43.212;27.908;2023-03-01T05:50:10;19.55;;;9.38;;
71038;SDS011;58692;43.212;27.908;2023-03-01T05:52:37;19.88;;;9.00;;
71038;SDS011;58692;43.212;27.908;2023-03-01T05:55:08;18.88;;;8.13;;
71038;SDS011;58692;43.212;27.908;2023-03-01T05:57:34;20.87;;;8.80;;
71038;SDS011;58692;43.212;27.908;2023-03-01T05:59:59;18.10;;;7.85;;
71038;SDS011;58692;43.212;27.908;2023-03-01T06:02:28;21.48;;;8.98;;
71038;SDS011;58692;43.212;27.908;2023-03-01T06:04:54;18.67;;;8.50;;
71038;SDS011;58692;43.212;27.908;2023-03-01T06:07:20;17.90;;;8.82;;
71038;SDS011;58692;43.212;27.908;2023-03-01T06:09:48;17.42;;;8.50;;
71038;SDS011;58692;43.212;27.908;2023-03-01T06:12:14;20.85;;;8.73;;
71038;SDS011;58692;43.212;27.908;2023-03-01T06:14:43;20.00;;;8.20;;
71038;SDS011;58692;43.212;27.908;2023-03-01T06:17:11;20.25;;;9.35;;
71038;SDS011;58692;43.212;27.908;2023-03-01T06:19:36;16.27;;;8.00;;
71038;SDS011;58692;43.212;27.908;2023-03-01T06:22:02;18.88;;;8.52;;
71038;SDS011;58692;43.212;27.908;2023-03-01T06:24:28;17.97;;;7.93;;
71038;SDS011;58692;43.212;27.908;2023-03-01T06:26:54;20.80;;;9.05;;
71038;SDS011;58692;43.212;27.908;2023-03-01T06:29:20;17.35;;;7.85;;
71038;SDS011;58692;43.212;27.908;2023-03-01T06:31:48;18.45;;;8.45;;
71038;SDS011;58692;43.212;27.908;2023-03-01T06:34:14;15.67;;;7.60;;
71038;SDS011;58692;43.212;27.908;2023-03-01T06:36:40;16.98;;;7.97;;
71038;SDS011;58692;43.212;27.908;2023-03-01T06:39:09;19.00;;;8.15;;
71038;SDS011;58692;43.212;27.908;2023-03-01T06:41:41;20.20;;;8.63;;
71038;SDS011;58692;43.212;27.908;2023-03-01T06:44:07;18.83;;;8.57;;
71038;SDS011;58692;43.212;27.908;2023-03-01T06:46:33;18.90;;;9.38;;
71038;SDS011;58692;43.212;27.908;2023-03-01T06:48:58;16.63;;;7.70;;
71038;SDS011;58692;43.212;27.908;2023-03-01T06:51:25;17.67;;;8.52;;
71038;SDS011;58692;43.212;27.908;2023-03-01T06:53:52;18.33;;;8.80;;
71038;SDS011;58692;43.212;27.908;2023-03-01T06:56:17;19.90;;;8.48;;
71038;SDS011;58692;43.212;27.908;2023-03-01T06:58:43;18.50;;;8.50;;
71038;SDS011;58692;43.212;27.908;2023-03-01T07:01:11;17.65;;;8.88;;
71038;SDS011;58692;43.212;27.908;2023-03-01T07:03:37;20.10;;;8.47;;
71038;SDS011;58692;43.212;27.908;2023-03-01T07:06:02;18.70;;;9.73;;
71038;SDS011;58692;43.212;27.908;2023-03-01T07:08:28;19.90;;;9.07;;
71038;SDS011;58692;43.212;27.908;2023-03-01T07:10:55;17.88;;;8.95;;
71038;SDS011;58692;43.212;27.908;2023-03-01T07:13:28;17.20;;;8.18;;
71038;SDS011;58692;43.212;27.908;2023-03-01T07:15:54;19.90;;;8.63;;
71038;SDS011;58692;43.212;27.908;2023-03-01T07:18:20;19.70;;;8.87;;
71038;SDS011;58692;43.212;27.908;2023-03-01T07:20:46;21.77;;;9.50;;
71038;SDS011;58692;43.212;27.908;2023-03-01T07:23:12;20.33;;;9.75;;
71038;SDS011;58692;43.212;27.908;2023-03-01T07:25:40;18.83;;;9.27;;
71038;SDS011;58692;43.212;27.908;2023-03-01T07:28:06;19.92;;;9.48;;
71038;SDS011;58692;43.212;27.908;2023-03-01T07:30:32;20.03;;;9.77;;
71038;SDS011;58692;43.212;27.908;2023-03-01T07:33:00;18.13;;;8.82;;
71038;SDS011;58692;43.212;27.908;2023-03-01T07:35:29;20.00;;;8.95;;
71038;SDS011;58692;43.212;27.908;2023-03-01T07:37:55;18.27;;;8.53;;
71038;SDS011;58692;43.212;27.908;2023-03-01T07:43:29;21.13;;;9.60;;
71038;SDS011;58692;43.212;27.908;2023-03-01T07:45:59;19.92;;;9.52;;
71038;SDS011;58692;43.212;27.908;2023-03-01T07:48:57;24.20;;;11.23;;
71038;SDS011;58692;43.212;27.908;2023-03-01T07:51:43;23.50;;;10.60;;
71038;SDS011;58692;43.212;27.908;2023-03-01T07:54:09;24.70;;;10.03;;
71038;SDS011;58692;43.212;27.908;2023-03-01T07:56:55;19.95;;;9.52;;
71038;SDS011;58692;43.212;27.908;2023-03-01T07:59:21;21.02;;;9.52;;
71038;SDS011;58692;43.212;27.908;2023-03-01T08:01:54;24.83;;;10.88;;
71038;SDS011;58692;43.212;27.908;2023-03-01T08:04:21;20.55;;;9.15;;
71038;SDS011;58692;43.212;27.908;2023-03-01T08:06:55;21.33;;;9.43;;
71038;SDS011;58692;43.212;27.908;2023-03-01T08:09:21;24.67;;;10.57;;
71038;SDS011;58692;43.212;27.908;2023-03-01T08:11:52;22.95;;;9.65;;
71038;SDS011;58692;43.212;27.908;2023-03-01T08:14:19;21.60;;;9.73;;
71038;SDS011;58692;43.212;27.908;2023-03-01T08:16:49;25.90;;;11.15;;
71038;SDS011;58692;43.212;27.908;2023-03-01T08:19:15;20.97;;;9.77;;
71038;SDS011;58692;43.212;27.908;2023-03-01T08:22:15;17.77;;;9.07;;
71038;SDS011;58692;43.212;27.908;2023-03-01T08:25:15;23.02;;;10.75;;
71038;SDS011;58692;43.212;27.908;2023-03-01T08:27:56;20.27;;;9.93;;
71038;SDS011;58692;43.212;27.908;2023-03-01T08:30:21;21.48;;;10.00;;
71038;SDS011;58692;43.212;27.908;2023-03-01T08:33:01;18.87;;;9.47;;
71038;SDS011;58692;43.212;27.908;2023-03-01T08:35:26;19.75;;;9.85;;
71038;SDS011;58692;43.212;27.908;2023-03-01T08:37:52;21.35;;;9.85;;
71038;SDS011;58692;43.212;27.908;2023-03-01T08:40:18;21.07;;;9.87;;
71038;SDS011;58692;43.212;27.908;2023-03-01T08:42:48;17.60;;;8.30;;
71038;SDS011;58692;43.212;27.908;2023-03-01T08:45:17;19.77;;;9.63;;
71038;SDS011;58692;43.212;27.908;2023-03-01T08:48:11;18.35;;;9.65;;
71038;SDS011;58692;43.212;27.908;2023-03-01T08:50:53;19.88;;;9.20;;
71038;SDS011;58692;43.212;27.908;2023-03-01T08:53:41;23.35;;;10.50;;
71038;SDS011;58692;43.212;27.908;2023-03-01T08:56:15;20.80;;;10.07;;
71038;SDS011;58692;43.212;27.908;2023-03-01T08:58:50;19.40;;;9.65;;
71038;SDS011;58692;43.212;27.908;2023-03-01T09:01:16;23.70;;;9.95;;
71038;SDS011;58692;43.212;27.908;2023-03-01T09:04:01;20.15;;;9.65;;
71038;SDS011;58692;43.212;27.908;2023-03-01T09:06:29;20.58;;;10.25;;
71038;SDS011;58692;43.212;27.908;2023-03-01T09:09:00;21.63;;;10.13;;
71038;SDS011;58692;43.212;27.908;2023-03-01T09:11:27;20.13;;;10.52;;
71038;SDS011;58692;43.212;27.908;2023-03-01T09:13:53;20.70;;;10.07;;
71038;SDS011;58692;43.212;27.908;2023-03-01T09:16:24;22.23;;;10.60;;
71038;SDS011;58692;43.212;27.908;2023-03-01T09:19:01;20.97;;;10.10;;
71038;SDS011;58692;43.212;27.908;2023-03-01T09:21:30;24.48;;;10.63;;
71038;SDS011;58692;43.212;27.908;2023-03-01T09:23:57;25.02;;;11.07;;
71038;SDS011;58692;43.212;27.908;2023-03-01T09:29:14;24.75;;;10.88;;
71038;SDS011;58692;43.212;27.908;2023-03-01T09:31:42;22.30;;;11.47;;
71038;SDS011;58692;43.212;27.908;2023-03-01T09:34:09;23.80;;;11.35;;
71038;SDS011;58692;43.212;27.908;2023-03-01T09:36:35;22.75;;;11.73;;
71038;SDS011;58692;43.212;27.908;2023-03-01T09:39:05;48.13;;;17.43;;
71038;SDS011;58692;43.212;27.908;2023-03-01T09:41:47;28.73;;;13.10;;
71038;SDS011;58692;43.212;27.908;2023-03-01T09:44:51;27.40;;;13.48;;
71038;SDS011;58692;43.212;27.908;2023-03-01T09:47:35;27.20;;;11.88;;
71038;SDS011;58692;43.212;27.908;2023-03-01T09:52:40;26.73;;;11.80;;
71038;SDS011;58692;43.212;27.908;2023-03-01T09:55:25;23.17;;;11.55;;
71038;SDS011;58692;43.212;27.908;2023-03-01T10:00:47;23.83;;;10.45;;
71038;SDS011;58692;43.212;27.908;2023-03-01T10:03:22;24.08;;;11.43;;
71038;SDS011;58692;43.212;27.908;2023-03-01T10:06:14;19.50;;;10.13;;
71038;SDS011;58692;43.212;27.908;2023-03-01T10:11:21;23.20;;;10.10;;
71038;SDS011;58692;43.212;27.908;2023-03-01T10:16:52;22.05;;;10.10;;
71038;SDS011;58692;43.212;27.908;2023-03-01T10:19:45;22.47;;;9.53;;
71038;SDS011;58692;43.212;27.908;2023-03-01T10:22:20;23.90;;;10.65;;
71038;SDS011;58692;43.212;27.908;2023-03-01T10:24:57;19.85;;;9.75;;
71038;SDS011;58692;43.212;27.908;2023-03-01T10:32:51;21.70;;;9.43;;
71038;SDS011;58692;43.212;27.908;2023-03-01T10:35:20;18.95;;;8.93;;
71038;SDS011;58692;43.212;27.908;2023-03-01T10:37:58;18.73;;;9.10;;
71038;SDS011;58692;43.212;27.908;2023-03-01T10:43:52;18.48;;;8.93;;
71038;SDS011;58692;43.212;27.908;2023-03-01T10:46:27;23.40;;;8.97;;
71038;SDS011;58692;43.212;27.908;2023-03-01T10:51:51;19.20;;;8.45;;
71038;SDS011;58692;43.212;27.908;2023-03-01T10:54:38;16.83;;;8.35;;
71038;SDS011;58692;43.212;27.908;2023-03-01T10:57:33;16.30;;;7.10;;
71038;SDS011;58692;43.212;27.908;2023-03-01T11:00:14;17.67;;;8.00;;
71038;SDS011;58692;43.212;27.908;2023-03-01T11:02:46;14.90;;;7.90;;
71038;SDS011;58692;43.212;27.908;2023-03-01T11:05:19;21.85;;;8.02;;
71038;SDS011;58692;43.212;27.908;2023-03-01T11:08:03;16.10;;;8.13;;
71038;SDS011;58692;43.212;27.908;2023-03-01T11:10:39;15.90;;;8.18;;
71038;SDS011;58692;43.212;27.908;2023-03-01T11:13:07;14.57;;;8.13;;
71038;SDS011;58692;43.212;27.908;2023-03-01T11:15:42;19.20;;;9.02;;
71038;SDS011;58692;43.212;27.908;2023-03-01T11:18:30;18.70;;;8.68;;
71038;SDS011;58692;43.212;27.908;2023-03-01T11:21:08;18.95;;;8.55;;
71038;SDS011;58692;43.212;27.908;2023-03-01T11:23:36;16.13;;;7.90;;
71038;SDS011;58692;43.212;27.908;2023-03-01T11:26:06;14.90;;;8.27;;
71038;SDS011;58692;43.212;27.908;2023-03-01T11:28:51;17.52;;;8.43;;
71038;SDS011;58692;43.212;27.908;2023-03-01T11:31:28;18.30;;;8.07;;
71038;SDS011;58692;43.212;27.908;2023-03-01T11:34:00;18.23;;;8.02;;
71038;SDS011;58692;43.212;27.908;2023-03-01T11:36:52;16.00;;;8.00;;
71038;SDS011;58692;43.212;27.908;2023-03-01T11:42:59;17.42;;;7.63;;
71038;SDS011;58692;43.212;27.908;2023-03-01T12:03:42;17.25;;;7.78;;
71038;SDS011;58692;43.212;27.908;2023-03-01T12:08:20;14.55;;;8.07;;
71038;SDS011;58692;43.212;27.908;2023-03-01T12:17:18;16.67;;;7.80;;
71038;SDS011;58692;43.212;27.908;2023-03-01T12:20:07;17.80;;;8.10;;
71038;SDS011;58692;43.212;27.908;2023-03-01T12:22:46;16.23;;;8.73;;
71038;SDS011;58692;43.212;27.908;2023-03-01T12:25:31;16.93;;;8.33;;
71038;SDS011;58692;43.212;27.908;2023-03-01T12:28:47;13.80;;;7.93;;
71038;SDS011;58692;43.212;27.908;2023-03-01T12:48:02;14.57;;;7.18;;
71038;SDS011;58692;43.212;27.908;2023-03-01T12:53:25;16.40;;;7.20;;
71038;SDS011;58692;43.212;27.908;2023-03-01T13:07:14;14.30;;;6.57;;
71038;SDS011;58692;43.212;27.908;2023-03-01T13:13:14;12.98;;;6.18;;
71038;SDS011;58692;43.212;27.908;2023-03-01T13:15:45;12.82;;;5.80;;
71038;SDS011;58692;43.212;27.908;2023-03-01T13:26:06;11.35;;;5.90;;
71038;SDS011;58692;43.212;27.908;2023-03-01T13:31:01;17.40;;;6.13;;
71038;SDS011;58692;43.212;27.908;2023-03-01T13:36:00;11.05;;;5.68;;
71038;SDS011;58692;43.212;27.908;2023-03-01T13:41:07;12.05;;;5.93;;
71038;SDS011;58692;43.212;27.908;2023-03-01T13:43:35;11.65;;;5.93;;
71038;SDS011;58692;43.212;27.908;2023-03-01T13:46:08;13.43;;;6.50;;
71038;SDS011;58692;43.212;27.908;2023-03-01T13:48:37;10.43;;;5.60;;
71038;SDS011;58692;43.212;27.908;2023-03-01T13:51:06;12.32;;;6.35;;
71038;SDS011;58692;43.212;27.908;2023-03-01T13:53:41;13.57;;;6.00;;
71038;SDS011;58692;43.212;27.908;2023-03-01T13:56:12;11.55;;;6.20;;
71038;SDS011;58692;43.212;27.908;2023-03-01T13:58:46;14.70;;;6.27;;
71038;SDS011;58692;43.212;27.908;2023-03-01T14:03:54;12.10;;;6.05;;
71038;SDS011;58692;43.212;27.908;2023-03-01T14:06:25;14.45;;;6.05;;
71038;SDS011;58692;43.212;27.908;2023-03-01T14:14:43;15.00;;;6.80;;
71038;SDS011;58692;43.212;27.908;2023-03-01T14:20:12;15.13;;;6.78;;
71038;SDS011;58692;43.212;27.908;2023-03-01T14:22:54;14.93;;;6.90;;
71038;SDS011;58692;43.212;27.908;2023-03-01T14:25:31;13.17;;;7.40;;
71038;SDS011;58692;43.212;27.908;2023-03-01T14:28:04;18.02;;;7.63;;
71038;SDS011;58692;43.212;27.908;2023-03-01T14:30:46;15.88;;;7.38;;
71038;SDS011;58692;43.212;27.908;2023-03-01T14:36:03;13.23;;;6.90;;
71038;SDS011;58692;43.212;27.908;2023-03-01T14:38:38;15.97;;;7.80;;
71038;SDS011;58692;43.212;27.908;2023-03-01T14:43:58;15.88;;;7.90;;
71038;SDS011;58692;43.212;27.908;2023-03-01T14:46:34;20.80;;;7.95;;
71038;SDS011;58692;43.212;27.908;2023-03-01T14:49:09;18.77;;;7.55;;
71038;SDS011;58692;43.212;27.908;2023-03-01T14:51:43;16.53;;;7.80;;
71038;SDS011;58692;43.212;27.908;2023-03-01T14:54:41;16.88;;;7.75;;
71038;SDS011;58692;43.212;27.908;2023-03-01T14:57:12;16.25;;;7.60;;
71038;SDS011;58692;43.212;27.908;2023-03-01T14:59:40;15.55;;;8.10;;
71038;SDS011;58692;43.212;27.908;2023-03-01T15:02:10;19.02;;;8.85;;
71038;SDS011;58692;43.212;27.908;2023-03-01T15:04:58;17.13;;;8.30;;
71038;SDS011;58692;43.212;27.908;2023-03-01T15:07:34;15.85;;;8.25;;
71038;SDS011;58692;43.212;27.908;2023-03-01T15:10:16;19.90;;;9.05;;
71038;SDS011;58692;43.212;27.908;2023-03-01T15:12:52;16.08;;;8.48;;
71038;SDS011;58692;43.212;27.908;2023-03-01T15:18:15;16.63;;;7.03;;
71038;SDS011;58692;43.212;27.908;2023-03-01T15:20:42;15.27;;;7.50;;
71038;SDS011;58692;43.212;27.908;2023-03-01T15:34:58;19.15;;;7.65;;
71038;SDS011;58692;43.212;27.908;2023-03-01T15:37:49;16.00;;;7.53;;
71038;SDS011;58692;43.212;27.908;2023-03-01T15:40:29;18.40;;;8.90;;
71038;SDS011;58692;43.212;27.908;2023-03-01T15:43:04;16.10;;;8.30;;
71038;SDS011;58692;43.212;27.908;2023-03-01T15:45:56;16.70;;;8.27;;
71038;SDS011;58692;43.212;27.908;2023-03-01T15:48:26;16.27;;;8.82;;
71038;SDS011;58692;43.212;27.908;2023-03-01T15:54:24;18.02;;;7.93;;
71038;SDS011;58692;43.212;27.908;2023-03-01T15:56:51;18.73;;;8.70;;
71038;SDS011;58692;43.212;27.908;2023-03-01T15:59:17;17.23;;;8.97;;
71038;SDS011;58692;43.212;27.908;2023-03-01T16:01:43;17.20;;;8.98;;
71038;SDS011;58692;43.212;27.908;2023-03-01T16:04:11;21.85;;;9.07;;
71038;SDS011;58692;43.212;27.908;2023-03-01T16:06:45;16.45;;;7.53;;
71038;SDS011;58692;43.212;27.908;2023-03-01T16:09:12;15.87;;;7.53;;
71038;SDS011;58692;43.212;27.908;2023-03-01T16:11:40;15.25;;;7.57;;
71038;SDS011;58692;43.212;27.908;2023-03-01T16:14:08;18.38;;;8.80;;
71038;SDS011;58692;43.212;27.908;2023-03-01T16:16:34;14.85;;;8.07;;
71038;SDS011;58692;43.212;27.908;2023-03-01T16:19:00;15.37;;;8.67;;
71038;SDS011;58692;43.212;27.908;2023-03-01T16:21:26;18.25;;;8.52;;
71038;SDS011;58692;43.212;27.908;2023-03-01T16:23:55;17.95;;;8.68;;
71038;SDS011;58692;43.212;27.908;2023-03-01T16:26:21;16.70;;;7.90;;
71038;SDS011;58692;43.212;27.908;2023-03-01T16:29:10;17.02;;;8.02;;
71038;SDS011;58692;43.212;27.908;2023-03-01T16:31:36;17.08;;;8.18;;
71038;SDS011;58692;43.212;27.908;2023-03-01T16:34:03;18.70;;;8.18;;
71038;SDS011;58692;43.212;27.908;2023-03-01T16:36:31;19.52;;;9.35;;
71038;SDS011;58692;43.212;27.908;2023-03-01T16:38:58;18.83;;;9.33;;
71038;SDS011;58692;43.212;27.908;2023-03-01T16:41:26;16.45;;;8.20;;
71038;SDS011;58692;43.212;27.908;2023-03-01T16:43:52;17.45;;;8.27;;
71038;SDS011;58692;43.212;27.908;2023-03-01T16:46:19;15.80;;;8.00;;
71038;SDS011;58692;43.212;27.908;2023-03-01T16:48:48;17.52;;;8.82;;
71038;SDS011;58692;43.212;27.908;2023-03-01T16:51:14;19.67;;;9.32;;
71038;SDS011;58692;43.212;27.908;2023-03-01T16:53:44;20.53;;;9.30;;
71038;SDS011;58692;43.212;27.908;2023-03-01T16:56:10;19.50;;;9.23;;
71038;SDS011;58692;43.212;27.908;2023-03-01T16:58:37;17.02;;;9.05;;
71038;SDS011;58692;43.212;27.908;2023-03-01T17:01:13;20.97;;;9.73;;
71038;SDS011;58692;43.212;27.908;2023-03-01T17:03:42;18.10;;;9.23;;
71038;SDS011;58692;43.212;27.908;2023-03-01T17:06:10;16.73;;;8.45;;
71038;SDS011;58692;43.212;27.908;2023-03-01T17:08:37;19.83;;;9.25;;
71038;SDS011;58692;43.212;27.908;2023-03-01T17:11:04;17.38;;;8.98;;
71038;SDS011;58692;43.212;27.908;2023-03-01T17:13:32;19.10;;;10.03;;
71038;SDS011;58692;43.212;27.908;2023-03-01T17:15:59;16.20;;;9.27;;
71038;SDS011;58692;43.212;27.908;2023-03-01T17:18:25;19.50;;;10.18;;